KCNO/CNO METAR and TAF weather

Enter ICAO airport designator
Station Type Date Time Source
KCNO METAR 2022/12/08 12:53 UTC NOAA

KCNO 081253Z AUTO 00000KT 5SM BR CLR 03/02 A3029 RMK AO2 SLP258 T00330017


Station Type Date Time Source
KCNO Decoded METAR 2022/12/08 12:53 UTC NOAA

CHINO AIRPORT, CA, United States (KCNO) 33-58N 117-38W 207M
Dec 08, 2022 - 07:53 AM EST / 2022.12.08 1253 UTC
Wind: Calm:0
Visibility: 5 mile(s):0
Sky conditions: clear
Weather: mist
Temperature: 37.9 F (3.3 C)
Dew Point: 35.1 F (1.7 C)
Relative Humidity: 89%
Pressure (altimeter): 30.29 in. Hg (1025 hPa)
ob: KCNO 081253Z AUTO 00000KT 5SM BR CLR 03/02 A3029 RMK AO2 SLP258 T00330017
cycle: 13

Station Type Date Time Source
KCNO TAF UTC NOAA

Error!

Example: see airport list